Time;durP1;ratioP1;P1;durP2;ratioP2;P2;SDS_P1;SDS_P2;PMS_P1;PMS_P2;Temp;Humidity;BMP_temperature;BMP_pressure;BME280_temperature;BME280_humidity;BME280_pressure;Samples;Min_cycle;Max_cycle;Signal;HPM_P1;HPM_P2
2023/03/09 00:00:21;;;;;;;53.45;40.22;;;;;;;;;;5034240;28;20128;-63
2023/03/09 00:02:47;;;;;;;53.47;36.20;;;;;;;;;;5033957;28;20117;-63
2023/03/09 00:05:12;;;;;;;56.15;35.35;;;;;;;;;;5036918;28;20112;-63
2023/03/09 00:07:37;;;;;;;52.22;35.38;;;;;;;;;;5045110;28;20100;-63
2023/03/09 00:10:03;;;;;;;60.13;40.53;;;;;;;;;;5048453;28;20442;-63
2023/03/09 00:12:28;;;;;;;60.88;38.40;;;;;;;;;;5035638;28;20018;-63
2023/03/09 00:14:54;;;;;;;60.50;40.67;;;;;;;;;;5041817;28;20033;-63
2023/03/09 00:17:20;;;;;;;55.80;39.45;;;;;;;;;;5035503;28;20017;-64
2023/03/09 00:19:45;;;;;;;59.97;43.38;;;;;;;;;;5042858;28;20055;-63
2023/03/09 00:22:10;;;;;;;63.00;42.17;;;;;;;;;;5033504;28;20079;-64
2023/03/09 00:24:36;;;;;;;75.60;48.17;;;;;;;;;;5032443;28;20029;-63
2023/03/09 00:27:02;;;;;;;61.65;40.47;;;;;;;;;;5032709;28;20078;-63
2023/03/09 00:29:28;;;;;;;83.22;50.10;;;;;;;;;;5033004;28;20503;-63
2023/03/09 00:31:54;;;;;;;73.75;46.95;;;;;;;;;;5036877;28;20028;-63
2023/03/09 00:34:20;;;;;;;68.75;45.80;;;;;;;;;;5046621;28;20017;-63
2023/03/09 00:36:45;;;;;;;72.07;49.33;;;;;;;;;;5037926;28;20029;-63
2023/03/09 00:39:12;;;;;;;67.05;43.90;;;;;;;;;;5037424;28;20079;-63
2023/03/09 00:41:37;;;;;;;73.65;46.65;;;;;;;;;;5048901;28;20509;-63
2023/03/09 00:44:03;;;;;;;72.50;46.95;;;;;;;;;;5036774;28;20025;-63
2023/03/09 00:46:28;;;;;;;75.38;50.33;;;;;;;;;;5036461;28;20067;-63
2023/03/09 00:48:54;;;;;;;70.68;45.85;;;;;;;;;;5036796;28;20068;-63
2023/03/09 00:51:19;;;;;;;70.22;46.92;;;;;;;;;;5036921;28;20100;-64
2023/03/09 00:53:44;;;;;;;78.80;47.25;;;;;;;;;;5036786;28;20376;-63
2023/03/09 00:56:15;;;;;;;69.45;46.03;;;;;;;;;;5036545;28;20025;-63
2023/03/09 00:58:40;;;;;;;86.47;53.92;;;;;;;;;;5037180;28;20079;-63
2023/03/09 01:01:06;;;;;;;72.90;45.83;;;;;;;;;;5043951;28;20108;-63
2023/03/09 01:03:32;;;;;;;76.22;50.00;;;;;;;;;;5042112;28;20041;-63
2023/03/09 01:05:58;;;;;;;75.60;50.17;;;;;;;;;;5036736;28;20033;-63
2023/03/09 01:08:23;;;;;;;71.47;46.25;;;;;;;;;;5048390;28;20056;-63
2023/03/09 01:10:49;;;;;;;84.68;53.08;;;;;;;;;;5045006;28;20104;-63
2023/03/09 01:13:14;;;;;;;101.00;58.08;;;;;;;;;;5038753;28;20030;-63
2023/03/09 01:15:39;;;;;;;101.60;60.75;;;;;;;;;;5036890;28;20029;-63
2023/03/09 01:18:05;;;;;;;109.82;62.72;;;;;;;;;;5036642;28;20025;-63
2023/03/09 01:20:30;;;;;;;94.18;60.90;;;;;;;;;;5036096;28;20420;-63
2023/03/09 01:22:55;;;;;;;99.30;59.90;;;;;;;;;;5036260;28;20037;-63
2023/03/09 01:25:21;;;;;;;84.63;52.13;;;;;;;;;;5048583;28;20025;-63
2023/03/09 01:27:46;;;;;;;94.78;56.05;;;;;;;;;;5036454;28;20064;-63
2023/03/09 01:30:11;;;;;;;120.45;66.32;;;;;;;;;;5036572;28;20396;-63
2023/03/09 01:32:37;;;;;;;112.75;63.50;;;;;;;;;;5049518;28;20029;-63
2023/03/09 01:35:03;;;;;;;130.43;70.03;;;;;;;;;;5038416;28;20083;-63
2023/03/09 01:37:28;;;;;;;129.88;73.53;;;;;;;;;;5036748;28;20029;-63
2023/03/09 01:39:53;;;;;;;112.63;67.63;;;;;;;;;;5042849;28;20087;-63
2023/03/09 01:42:19;;;;;;;109.38;65.03;;;;;;;;;;5042516;28;20044;-63
2023/03/09 01:44:44;;;;;;;139.60;74.35;;;;;;;;;;5035744;28;20029;-63
2023/03/09 01:47:09;;;;;;;128.50;69.88;;;;;;;;;;5035591;28;20048;-63
2023/03/09 01:49:37;;;;;;;122.32;69.82;;;;;;;;;;5039977;28;20537;-63
2023/03/09 01:52:02;;;;;;;133.60;72.43;;;;;;;;;;5044901;28;20063;-63
2023/03/09 01:54:28;;;;;;;115.32;62.30;;;;;;;;;;5039664;28;20065;-63
2023/03/09 01:56:57;;;;;;;137.93;73.75;;;;;;;;;;5036480;28;20437;-63
2023/03/09 01:59:24;;;;;;;124.72;64.35;;;;;;;;;;5037071;28;20029;-63
2023/03/09 02:01:50;;;;;;;116.97;67.97;;;;;;;;;;5037220;28;20029;-63
2023/03/09 02:04:17;;;;;;;129.38;71.97;;;;;;;;;;5037396;28;20025;-64
2023/03/09 02:06:43;;;;;;;108.30;66.55;;;;;;;;;;5042688;28;20044;-63
2023/03/09 02:09:14;;;;;;;106.05;57.33;;;;;;;;;;5038336;28;20053;-63
2023/03/09 02:11:39;;;;;;;103.82;58.78;;;;;;;;;;5054717;28;20021;-63
2023/03/09 02:14:05;;;;;;;111.20;65.07;;;;;;;;;;5051186;28;20026;-63
2023/03/09 02:16:30;;;;;;;133.02;74.80;;;;;;;;;;5043871;28;20029;-63
2023/03/09 02:18:56;;;;;;;129.90;70.88;;;;;;;;;;5037548;28;20025;-64
2023/03/09 02:21:24;;;;;;;129.63;66.53;;;;;;;;;;5036742;28;20025;-63
2023/03/09 02:23:52;;;;;;;97.55;56.42;;;;;;;;;;5052800;28;20036;-63
2023/03/09 02:26:23;;;;;;;109.15;62.33;;;;;;;;;;5050026;28;20476;-63
2023/03/09 02:28:49;;;;;;;131.88;67.53;;;;;;;;;;5050823;28;20119;-63
2023/03/09 02:31:15;;;;;;;133.10;74.90;;;;;;;;;;5045838;28;20072;-64
2023/03/09 02:33:40;;;;;;;155.75;75.97;;;;;;;;;;5040118;28;20480;-63
2023/03/09 02:36:06;;;;;;;139.35;71.10;;;;;;;;;;5046046;28;20460;-64
2023/03/09 02:38:31;;;;;;;115.55;65.32;;;;;;;;;;5035850;28;20437;-63
2023/03/09 02:40:57;;;;;;;160.23;73.25;;;;;;;;;;5048885;28;20380;-63
2023/03/09 02:43:26;;;;;;;107.88;59.67;;;;;;;;;;5052916;28;20025;-63
2023/03/09 02:45:51;;;;;;;96.95;57.80;;;;;;;;;;5036557;28;20098;-63
2023/03/09 02:48:16;;;;;;;120.00;65.72;;;;;;;;;;5034622;28;20104;-63
2023/03/09 02:50:43;;;;;;;181.23;80.15;;;;;;;;;;5048587;28;20387;-63
2023/03/09 02:53:08;;;;;;;108.30;62.30;;;;;;;;;;5046773;28;20032;-63
2023/03/09 02:55:34;;;;;;;132.00;66.45;;;;;;;;;;5038722;28;20041;-63
2023/03/09 02:57:59;;;;;;;111.45;59.30;;;;;;;;;;5049518;28;20495;-63
2023/03/09 03:00:26;;;;;;;129.88;65.90;;;;;;;;;;5034217;28;20087;-64
2023/03/09 03:02:51;;;;;;;103.35;58.92;;;;;;;;;;5049003;28;20475;-63
2023/03/09 03:05:16;;;;;;;112.05;59.70;;;;;;;;;;5053593;28;20032;-63
2023/03/09 03:07:41;;;;;;;142.52;67.63;;;;;;;;;;5052876;28;20103;-63
2023/03/09 03:10:07;;;;;;;180.85;70.78;;;;;;;;;;5053161;28;20071;-63
2023/03/09 03:12:32;;;;;;;103.80;58.58;;;;;;;;;;5039864;28;20025;-63
2023/03/09 03:14:58;;;;;;;107.00;59.15;;;;;;;;;;5052925;28;20100;-63
2023/03/09 03:17:23;;;;;;;156.23;74.88;;;;;;;;;;5048556;28;20498;-63
2023/03/09 03:19:48;;;;;;;140.90;65.80;;;;;;;;;;5035086;28;20036;-63
2023/03/09 03:22:14;;;;;;;133.07;67.75;;;;;;;;;;5034149;28;20063;-63
2023/03/09 03:24:39;;;;;;;182.07;76.70;;;;;;;;;;5041925;28;20494;-63
2023/03/09 03:27:05;;;;;;;93.40;55.53;;;;;;;;;;5033704;28;20025;-63
2023/03/09 03:29:30;;;;;;;99.47;58.47;;;;;;;;;;5039218;28;20372;-63
2023/03/09 03:31:56;;;;;;;282.52;93.95;;;;;;;;;;5049567;28;20081;-63
2023/03/09 03:34:21;;;;;;;131.52;62.80;;;;;;;;;;5033525;28;20025;-63
2023/03/09 03:36:46;;;;;;;156.80;70.13;;;;;;;;;;5048271;28;20036;-63
2023/03/09 03:39:12;;;;;;;113.35;61.08;;;;;;;;;;5052484;28;20492;-63
2023/03/09 03:41:37;;;;;;;130.07;65.15;;;;;;;;;;5051271;28;20040;-63
2023/03/09 03:44:02;;;;;;;121.22;62.50;;;;;;;;;;5052405;28;20400;-63
2023/03/09 03:46:27;;;;;;;98.18;52.60;;;;;;;;;;5051787;28;20086;-63
2023/03/09 03:48:53;;;;;;;249.07;87.05;;;;;;;;;;5052233;28;20039;-63
2023/03/09 03:51:18;;;;;;;104.60;55.55;;;;;;;;;;5051839;28;20024;-63
2023/03/09 03:53:44;;;;;;;76.05;48.92;;;;;;;;;;5052747;28;20108;-63
2023/03/09 03:56:09;;;;;;;94.65;51.50;;;;;;;;;;5052069;28;20055;-63
2023/03/09 03:58:34;;;;;;;102.57;54.33;;;;;;;;;;5052705;28;20024;-63
2023/03/09 04:01:00;;;;;;;108.18;61.28;;;;;;;;;;5051714;28;20024;-63
2023/03/09 04:03:25;;;;;;;119.97;62.78;;;;;;;;;;5052295;28;20029;-63
2023/03/09 04:05:50;;;;;;;98.18;54.83;;;;;;;;;;5052342;28;20033;-64
2023/03/09 04:08:15;;;;;;;93.63;55.05;;;;;;;;;;5051824;28;20472;-63
2023/03/09 04:10:41;;;;;;;71.60;48.60;;;;;;;;;;5052355;28;20025;-63
2023/03/09 04:13:06;;;;;;;73.07;45.03;;;;;;;;;;5051969;28;20426;-63
2023/03/09 04:15:32;;;;;;;73.07;44.25;;;;;;;;;;5050606;28;20021;-63
2023/03/09 04:17:57;;;;;;;80.80;49.45;;;;;;;;;;5051725;28;20027;-64
2023/03/09 04:20:22;;;;;;;66.07;42.65;;;;;;;;;;5051311;28;20021;-63
2023/03/09 04:22:49;;;;;;;77.05;44.03;;;;;;;;;;5052065;28;20037;-63
2023/03/09 04:25:15;;;;;;;76.35;48.88;;;;;;;;;;5051158;28;20104;-63
2023/03/09 04:27:40;;;;;;;67.40;43.58;;;;;;;;;;5052089;28;20036;-63
2023/03/09 04:30:06;;;;;;;64.03;42.53;;;;;;;;;;5051147;28;20029;-63
2023/03/09 04:32:31;;;;;;;71.97;45.67;;;;;;;;;;5052549;28;20194;-63
2023/03/09 04:34:56;;;;;;;77.07;47.45;;;;;;;;;;5051736;28;20117;-63
2023/03/09 04:37:21;;;;;;;69.43;43.92;;;;;;;;;;5052010;28;20029;-63
2023/03/09 04:39:46;;;;;;;64.30;40.30;;;;;;;;;;5051976;28;20102;-63
2023/03/09 04:42:12;;;;;;;68.28;42.50;;;;;;;;;;5052223;28;20048;-63
2023/03/09 04:44:37;;;;;;;69.53;45.88;;;;;;;;;;5051846;28;20070;-63
2023/03/09 04:47:03;;;;;;;85.72;48.53;;;;;;;;;;5051179;28;20028;-63
2023/03/09 04:49:29;;;;;;;76.22;49.42;;;;;;;;;;5051356;28;20028;-64
2023/03/09 04:51:54;;;;;;;71.00;46.72;;;;;;;;;;5050909;28;20443;-63
2023/03/09 04:54:20;;;;;;;66.40;42.90;;;;;;;;;;5051210;28;20372;-63
2023/03/09 04:56:45;;;;;;;75.45;47.80;;;;;;;;;;5051189;28;20479;-63
2023/03/09 04:59:10;;;;;;;83.88;45.20;;;;;;;;;;5051139;28;20048;-63
2023/03/09 05:01:36;;;;;;;78.70;48.10;;;;;;;;;;5051551;28;20029;-63
2023/03/09 05:04:01;;;;;;;68.75;42.95;;;;;;;;;;5051768;28;20068;-63
2023/03/09 05:06:26;;;;;;;72.28;45.80;;;;;;;;;;5051042;28;20048;-64
2023/03/09 05:08:51;;;;;;;67.97;45.17;;;;;;;;;;5051291;28;20421;-63
2023/03/09 05:11:17;;;;;;;65.65;39.80;;;;;;;;;;5052282;28;20017;-64
2023/03/09 05:13:42;;;;;;;56.00;37.88;;;;;;;;;;5051357;28;20514;-63
2023/03/09 05:16:07;;;;;;;77.30;44.53;;;;;;;;;;5050542;28;20021;-64
2023/03/09 05:18:34;;;;;;;66.95;43.75;;;;;;;;;;5051672;28;20076;-63
2023/03/09 05:20:59;;;;;;;65.43;43.72;;;;;;;;;;5054585;28;20037;-63
2023/03/09 05:23:24;;;;;;;61.55;39.03;;;;;;;;;;5054672;28;20077;-63
2023/03/09 05:25:57;;;;;;;62.30;38.53;;;;;;;;;;5054954;28;20036;-63
2023/03/09 05:28:24;;;;;;;65.25;39.92;;;;;;;;;;5054275;28;20029;-63
2023/03/09 05:30:50;;;;;;;76.10;42.97;;;;;;;;;;5054637;28;20028;-63
2023/03/09 05:33:15;;;;;;;64.38;37.78;;;;;;;;;;5041041;28;20093;-63
2023/03/09 05:35:40;;;;;;;70.13;43.47;;;;;;;;;;5035426;28;20033;-63
2023/03/09 05:38:06;;;;;;;75.15;42.35;;;;;;;;;;5035773;28;20029;-63
2023/03/09 05:40:31;;;;;;;82.10;50.13;;;;;;;;;;5035980;28;20026;-63
2023/03/09 05:42:56;;;;;;;76.43;47.88;;;;;;;;;;5035296;28;20029;-63
2023/03/09 05:45:21;;;;;;;85.13;48.80;;;;;;;;;;5045761;28;20029;-63
2023/03/09 05:47:47;;;;;;;92.50;52.53;;;;;;;;;;5035341;28;20041;-63
2023/03/09 05:50:12;;;;;;;90.15;51.35;;;;;;;;;;5054968;28;20387;-64
2023/03/09 05:52:37;;;;;;;88.47;48.30;;;;;;;;;;5054656;28;20078;-63
2023/03/09 05:55:03;;;;;;;70.45;43.08;;;;;;;;;;5054684;28;20471;-63
2023/03/09 05:57:28;;;;;;;80.45;45.60;;;;;;;;;;5054490;28;20028;-63
2023/03/09 05:59:53;;;;;;;81.18;44.53;;;;;;;;;;5054537;28;20080;-63
2023/03/09 06:02:18;;;;;;;76.13;45.20;;;;;;;;;;5053366;28;20032;-63
2023/03/09 06:04:48;;;;;;;65.20;40.65;;;;;;;;;;5053487;28;20054;-63
2023/03/09 06:07:13;;;;;;;78.65;45.92;;;;;;;;;;5052399;28;20033;-63
2023/03/09 06:09:38;;;;;;;76.78;46.03;;;;;;;;;;5052908;28;20189;-63
2023/03/09 06:12:04;;;;;;;77.10;45.88;;;;;;;;;;5054624;28;20033;-63
2023/03/09 06:14:29;;;;;;;83.75;47.13;;;;;;;;;;5040834;28;20464;-64
2023/03/09 06:16:54;;;;;;;84.22;46.40;;;;;;;;;;5041766;28;20357;-63
2023/03/09 06:19:19;;;;;;;83.22;49.05;;;;;;;;;;5034864;28;20028;-63
2023/03/09 06:21:45;;;;;;;84.85;48.33;;;;;;;;;;5035128;28;20025;-63
2023/03/09 06:24:10;;;;;;;76.30;48.20;;;;;;;;;;5035060;28;20424;-63
2023/03/09 06:26:35;;;;;;;71.53;44.53;;;;;;;;;;5034820;28;20034;-63
2023/03/09 06:29:01;;;;;;;61.90;39.97;;;;;;;;;;5047988;28;20431;-63
2023/03/09 06:31:26;;;;;;;68.05;42.38;;;;;;;;;;5044993;28;20079;-64
2023/03/09 06:33:51;;;;;;;72.47;39.00;;;;;;;;;;5053612;28;20020;-64
2023/03/09 06:36:17;;;;;;;71.15;44.50;;;;;;;;;;5053621;28;20098;-63
2023/03/09 06:38:42;;;;;;;77.68;46.53;;;;;;;;;;5052778;28;20044;-64
2023/03/09 06:41:08;;;;;;;89.63;53.63;;;;;;;;;;5053108;28;20029;-63
2023/03/09 06:43:33;;;;;;;67.35;44.08;;;;;;;;;;5052993;28;20033;-63
2023/03/09 06:45:59;;;;;;;65.13;42.30;;;;;;;;;;5053352;28;20037;-64
2023/03/09 06:48:25;;;;;;;76.22;42.58;;;;;;;;;;5052690;28;20015;-64
2023/03/09 06:50:50;;;;;;;71.18;42.70;;;;;;;;;;5053333;28;20021;-63
2023/03/09 06:53:15;;;;;;;68.05;42.05;;;;;;;;;;5052827;28;20482;-63
2023/03/09 06:55:40;;;;;;;68.40;39.53;;;;;;;;;;5052685;28;20021;-63
2023/03/09 06:58:06;;;;;;;72.07;42.20;;;;;;;;;;5048292;28;20017;-63
2023/03/09 07:00:31;;;;;;;68.07;38.88;;;;;;;;;;5047956;28;20513;-63
2023/03/09 07:02:57;;;;;;;70.18;39.78;;;;;;;;;;5043050;28;20088;-63
2023/03/09 07:05:22;;;;;;;58.95;37.88;;;;;;;;;;5052546;28;20040;-63
2023/03/09 07:07:48;;;;;;;65.18;38.33;;;;;;;;;;5043335;28;20116;-63
2023/03/09 07:10:14;;;;;;;67.20;39.30;;;;;;;;;;5044811;28;20025;-63
2023/03/09 07:12:39;;;;;;;61.85;37.63;;;;;;;;;;5040053;28;20530;-63
2023/03/09 07:15:05;;;;;;;58.40;38.00;;;;;;;;;;5042521;28;20037;-64
2023/03/09 07:17:30;;;;;;;52.03;35.35;;;;;;;;;;5033780;28;20021;-63
2023/03/09 07:19:57;;;;;;;52.47;34.55;;;;;;;;;;5034027;28;20021;-63
2023/03/09 07:22:22;;;;;;;59.50;35.83;;;;;;;;;;5038664;28;20024;-63
2023/03/09 07:24:48;;;;;;;55.70;35.15;;;;;;;;;;5042381;28;20025;-64
2023/03/09 07:27:13;;;;;;;55.92;33.83;;;;;;;;;;5035103;28;20052;-63
2023/03/09 07:29:40;;;;;;;60.85;35.42;;;;;;;;;;5045052;28;20028;-64
2023/03/09 07:32:05;;;;;;;57.33;37.05;;;;;;;;;;5052150;28;20025;-63
2023/03/09 07:34:33;;;;;;;56.78;37.17;;;;;;;;;;5053448;28;20040;-63
2023/03/09 07:36:59;;;;;;;60.38;39.60;;;;;;;;;;5035353;28;20104;-64
2023/03/09 07:39:24;;;;;;;59.10;37.40;;;;;;;;;;5033585;28;20057;-64
2023/03/09 07:41:50;;;;;;;60.13;34.80;;;;;;;;;;5032880;28;20079;-63
2023/03/09 07:44:15;;;;;;;54.58;35.30;;;;;;;;;;5044201;28;20033;-63
2023/03/09 07:46:41;;;;;;;62.83;35.75;;;;;;;;;;5049325;28;20037;-63
2023/03/09 07:49:06;;;;;;;56.38;37.17;;;;;;;;;;5052020;28;20021;-63
2023/03/09 07:51:32;;;;;;;55.47;35.75;;;;;;;;;;5050740;28;20029;-63
2023/03/09 07:53:57;;;;;;;58.42;35.97;;;;;;;;;;5050843;28;20492;-63
2023/03/09 07:56:22;;;;;;;56.53;32.45;;;;;;;;;;5047699;28;20017;-63
2023/03/09 07:58:50;;;;;;;53.50;34.55;;;;;;;;;;5050539;28;20032;-63
2023/03/09 08:01:17;;;;;;;56.58;35.78;;;;;;;;;;5050669;28;20029;-63
2023/03/09 08:03:43;;;;;;;52.58;34.38;;;;;;;;;;5050538;28;20559;-64
2023/03/09 08:06:09;;;;;;;50.35;33.00;;;;;;;;;;5039147;28;20112;-63
2023/03/09 08:08:35;;;;;;;52.70;35.30;;;;;;;;;;5040029;28;20032;-63
2023/03/09 08:11:01;;;;;;;52.75;33.05;;;;;;;;;;5045194;28;20029;-63
2023/03/09 08:13:26;;;;;;;47.13;30.90;;;;;;;;;;5049947;28;20059;-63
2023/03/09 08:15:52;;;;;;;50.58;31.65;;;;;;;;;;5050538;28;20028;-63
2023/03/09 08:18:18;;;;;;;48.80;30.63;;;;;;;;;;5051495;28;20522;-63
2023/03/09 08:20:43;;;;;;;49.35;30.45;;;;;;;;;;5048108;28;20017;-63
2023/03/09 08:23:09;;;;;;;50.40;33.15;;;;;;;;;;5049847;28;20036;-63
2023/03/09 08:25:34;;;;;;;49.72;31.10;;;;;;;;;;5047805;28;20033;-63
2023/03/09 08:27:59;;;;;;;48.72;30.80;;;;;;;;;;5050185;28;20017;-63
2023/03/09 08:30:25;;;;;;;50.33;30.83;;;;;;;;;;5050160;28;20461;-63
2023/03/09 08:32:51;;;;;;;50.53;31.77;;;;;;;;;;5042145;28;20029;-64
2023/03/09 08:35:20;;;;;;;51.28;30.75;;;;;;;;;;5045643;28;20034;-63
2023/03/09 08:37:45;;;;;;;49.25;30.88;;;;;;;;;;5029958;28;20030;-64
2023/03/09 08:40:11;;;;;;;58.08;30.55;;;;;;;;;;5040927;28;20513;-63
2023/03/09 08:42:37;;;;;;;47.97;29.45;;;;;;;;;;5039670;28;20036;-64
2023/03/09 08:45:03;;;;;;;44.92;28.48;;;;;;;;;;5042499;28;20407;-63
2023/03/09 08:47:29;;;;;;;41.35;28.98;;;;;;;;;;5038466;28;20431;-64
2023/03/09 08:49:54;;;;;;;39.40;27.38;;;;;;;;;;5041507;28;20029;-64
2023/03/09 08:52:19;;;;;;;46.33;29.33;;;;;;;;;;5039070;28;20128;-63
2023/03/09 08:54:46;;;;;;;48.72;28.42;;;;;;;;;;5047773;28;20025;-64
2023/03/09 08:57:11;;;;;;;47.10;28.63;;;;;;;;;;5047343;28;20025;-64
2023/03/09 08:59:37;;;;;;;37.67;26.85;;;;;;;;;;5045878;28;20429;-64
2023/03/09 09:02:02;;;;;;;50.03;28.85;;;;;;;;;;5041851;28;20034;-63
2023/03/09 09:04:28;;;;;;;42.38;27.85;;;;;;;;;;5046049;28;20020;-63
2023/03/09 09:06:53;;;;;;;45.15;27.35;;;;;;;;;;5041911;28;20037;-64
2023/03/09 09:09:19;;;;;;;55.20;29.83;;;;;;;;;;5047478;28;20013;-64
2023/03/09 09:11:45;;;;;;;49.22;28.48;;;;;;;;;;5044067;28;20017;-64
2023/03/09 09:14:10;;;;;;;43.15;27.55;;;;;;;;;;5035425;28;20028;-64
2023/03/09 09:16:35;;;;;;;42.28;26.90;;;;;;;;;;5035592;28;20483;-64
2023/03/09 09:19:01;;;;;;;40.63;27.27;;;;;;;;;;5038896;28;20025;-64
2023/03/09 09:21:28;;;;;;;41.95;28.92;;;;;;;;;;5054335;28;20029;-64
2023/03/09 09:23:53;;;;;;;54.05;29.08;;;;;;;;;;5053324;28;20040;-64
2023/03/09 09:26:18;;;;;;;49.50;27.40;;;;;;;;;;5054490;28;20048;-64
2023/03/09 09:28:44;;;;;;;50.45;28.58;;;;;;;;;;5053375;28;20029;-64
2023/03/09 09:31:12;;;;;;;47.40;26.65;;;;;;;;;;5054187;28;20379;-64
2023/03/09 09:33:38;;;;;;;50.38;27.77;;;;;;;;;;5053908;28;20070;-64
2023/03/09 09:36:05;;;;;;;48.70;25.92;;;;;;;;;;5047757;28;20028;-64
2023/03/09 09:38:33;;;;;;;52.60;25.88;;;;;;;;;;5037809;28;20534;-64
2023/03/09 09:41:01;;;;;;;39.83;25.27;;;;;;;;;;5046602;28;20031;-64
2023/03/09 09:43:28;;;;;;;37.65;25.45;;;;;;;;;;5040211;28;20033;-64
2023/03/09 09:45:55;;;;;;;45.38;25.17;;;;;;;;;;5038888;28;20030;-64
2023/03/09 09:48:22;;;;;;;41.55;25.02;;;;;;;;;;5052690;28;20021;-64
2023/03/09 09:51:06;;;;;;;38.08;25.00;;;;;;;;;;5047153;28;20021;-64
2023/03/09 09:53:38;;;;;;;43.25;23.70;;;;;;;;;;5042945;28;20445;-64
2023/03/09 09:56:08;;;;;;;38.00;23.50;;;;;;;;;;5053944;28;20116;-64
2023/03/09 09:58:42;;;;;;;35.78;23.15;;;;;;;;;;5049215;28;20372;-64
2023/03/09 10:01:29;;;;;;;40.75;24.55;;;;;;;;;;5050455;28;20037;-64
2023/03/09 10:03:58;;;;;;;40.25;24.73;;;;;;;;;;5047565;28;20048;-65
2023/03/09 10:06:25;;;;;;;38.58;24.98;;;;;;;;;;5051343;28;20116;-65
2023/03/09 10:08:56;;;;;;;32.55;23.67;;;;;;;;;;5052611;28;20025;-65
2023/03/09 10:11:35;;;;;;;34.03;24.58;;;;;;;;;;5049520;28;20032;-65
2023/03/09 10:14:05;;;;;;;38.47;25.90;;;;;;;;;;5049420;28;20431;-65
2023/03/09 10:16:35;;;;;;;38.25;22.67;;;;;;;;;;5052309;28;20055;-65
2023/03/09 10:19:01;;;;;;;36.17;23.55;;;;;;;;;;5052295;28;20033;-65
2023/03/09 10:21:56;;;;;;;34.75;22.20;;;;;;;;;;5053137;28;20379;-64
2023/03/09 10:24:23;;;;;;;27.95;20.77;;;;;;;;;;5053078;28;20075;-65
2023/03/09 10:26:52;;;;;;;31.10;21.90;;;;;;;;;;5052028;28;20095;-65
2023/03/09 10:29:36;;;;;;;41.15;22.60;;;;;;;;;;5041709;28;20044;-65
2023/03/09 10:32:05;;;;;;;32.08;21.27;;;;;;;;;;5050136;28;20026;-64
2023/03/09 10:34:32;;;;;;;28.60;21.27;;;;;;;;;;5050143;28;20096;-65
2023/03/09 10:37:00;;;;;;;33.75;21.02;;;;;;;;;;5049210;28;20025;-65
2023/03/09 10:39:27;;;;;;;31.75;22.95;;;;;;;;;;5051584;28;20023;-65
2023/03/09 10:41:55;;;;;;;30.90;21.60;;;;;;;;;;5051539;28;20036;-65
2023/03/09 10:44:21;;;;;;;29.80;21.40;;;;;;;;;;5051976;28;20029;-65
2023/03/09 10:47:13;;;;;;;27.52;19.75;;;;;;;;;;5050280;28;20025;-65
2023/03/09 10:49:39;;;;;;;28.80;20.33;;;;;;;;;;5049068;28;20037;-65
2023/03/09 10:52:06;;;;;;;28.92;19.35;;;;;;;;;;5048692;28;20079;-65
2023/03/09 10:54:36;;;;;;;23.65;18.83;;;;;;;;;;5042437;28;20041;-65
2023/03/09 10:57:02;;;;;;;24.35;17.58;;;;;;;;;;5046932;28;20100;-65
2023/03/09 10:59:29;;;;;;;20.05;15.68;;;;;;;;;;5043071;28;20111;-65
2023/03/09 11:01:56;;;;;;;25.95;16.50;;;;;;;;;;5035435;28;20022;-65
2023/03/09 11:04:21;;;;;;;22.92;16.23;;;;;;;;;;5045543;28;20035;-66
2023/03/09 11:06:51;;;;;;;25.08;17.40;;;;;;;;;;5041314;28;20415;-65
2023/03/09 11:09:22;;;;;;;20.60;16.33;;;;;;;;;;5040865;28;20055;-65
2023/03/09 11:11:48;;;;;;;21.92;16.02;;;;;;;;;;5043424;28;20021;-65
2023/03/09 11:14:23;;;;;;;25.88;17.17;;;;;;;;;;5048557;28;20025;-65
2023/03/09 11:16:50;;;;;;;22.48;16.48;;;;;;;;;;5038418;28;20105;-65
2023/03/09 11:19:17;;;;;;;24.23;15.93;;;;;;;;;;5039670;28;20375;-65
2023/03/09 11:21:58;;;;;;;22.92;16.63;;;;;;;;;;5048652;28;20036;-65
2023/03/09 11:24:29;;;;;;;27.75;17.05;;;;;;;;;;5050201;28;20057;-65
2023/03/09 11:27:27;;;;;;;21.45;15.95;;;;;;;;;;5040356;28;20480;-65
2023/03/09 11:30:01;;;;;;;22.75;15.82;;;;;;;;;;5028864;28;20078;-65
2023/03/09 11:32:26;;;;;;;19.17;15.85;;;;;;;;;;5043828;28;20107;-65
2023/03/09 11:34:52;;;;;;;26.35;17.35;;;;;;;;;;5052340;28;20108;-65
2023/03/09 11:37:36;;;;;;;21.70;16.02;;;;;;;;;;5045508;28;20013;-64
2023/03/09 11:40:05;;;;;;;21.17;15.35;;;;;;;;;;5050600;28;20025;-65
2023/03/09 11:42:31;;;;;;;20.83;16.13;;;;;;;;;;5043350;28;20091;-65
2023/03/09 11:44:56;;;;;;;21.40;16.73;;;;;;;;;;5051397;28;20025;-65
2023/03/09 11:47:30;;;;;;;20.23;15.88;;;;;;;;;;5051486;28;20115;-65
2023/03/09 11:49:56;;;;;;;22.85;16.10;;;;;;;;;;5049924;28;20039;-65
2023/03/09 11:52:28;;;;;;;19.80;15.85;;;;;;;;;;5050985;28;20104;-65
2023/03/09 11:54:57;;;;;;;20.05;14.93;;;;;;;;;;5050971;28;20359;-66
2023/03/09 11:57:25;;;;;;;23.08;16.52;;;;;;;;;;5051409;28;20143;-65
2023/03/09 12:00:05;;;;;;;21.58;16.25;;;;;;;;;;5050127;28;21155;-65
2023/03/09 12:02:38;;;;;;;22.33;16.17;;;;;;;;;;5051795;28;20115;-65
2023/03/09 12:05:09;;;;;;;21.10;16.55;;;;;;;;;;5049655;28;20024;-64
2023/03/09 12:07:39;;;;;;;22.40;16.27;;;;;;;;;;5050644;28;20033;-64
2023/03/09 12:10:05;;;;;;;25.38;17.45;;;;;;;;;;5038889;28;20029;-64
2023/03/09 12:12:43;;;;;;;24.42;16.77;;;;;;;;;;5044586;28;20078;-64
2023/03/09 12:15:15;;;;;;;23.92;18.42;;;;;;;;;;5045979;28;20063;-64
2023/03/09 12:18:00;;;;;;;30.02;19.55;;;;;;;;;;5047434;28;20034;-65
2023/03/09 12:20:25;;;;;;;25.35;19.10;;;;;;;;;;5046417;28;20060;-64
2023/03/09 12:22:50;;;;;;;28.10;20.83;;;;;;;;;;5045361;28;20124;-64
2023/03/09 12:25:17;;;;;;;29.75;18.58;;;;;;;;;;5049824;28;20024;-64
2023/03/09 12:28:00;;;;;;;32.17;20.48;;;;;;;;;;5045626;28;20017;-64
2023/03/09 12:30:30;;;;;;;30.15;21.73;;;;;;;;;;5046679;28;20066;-65
2023/03/09 12:32:58;;;;;;;34.65;23.10;;;;;;;;;;5051390;28;20021;-64
2023/03/09 12:35:23;;;;;;;33.10;22.25;;;;;;;;;;5044599;28;20025;-64
2023/03/09 12:37:54;;;;;;;25.00;19.98;;;;;;;;;;5041972;28;20387;-64
2023/03/09 12:40:24;;;;;;;29.95;21.13;;;;;;;;;;5034862;28;20036;-64
2023/03/09 12:42:50;;;;;;;41.55;28.92;;;;;;;;;;5042353;28;20025;-65
2023/03/09 12:45:16;;;;;;;32.00;23.15;;;;;;;;;;5044772;28;20070;-65
2023/03/09 12:47:43;;;;;;;31.25;23.88;;;;;;;;;;5051686;28;20029;-65
2023/03/09 12:50:23;;;;;;;30.23;22.95;;;;;;;;;;5050366;28;20029;-63
2023/03/09 12:53:01;;;;;;;32.75;20.08;;;;;;;;;;5050298;28;20017;-63
2023/03/09 12:55:35;;;;;;;32.20;21.65;;;;;;;;;;5051149;28;20021;-65
2023/03/09 12:58:21;;;;;;;31.45;23.23;;;;;;;;;;5050333;28;20033;-65
2023/03/09 13:00:50;;;;;;;33.92;24.00;;;;;;;;;;5047758;28;20028;-65
2023/03/09 13:03:17;;;;;;;38.10;24.15;;;;;;;;;;5050998;28;20086;-65
2023/03/09 13:05:42;;;;;;;32.35;23.50;;;;;;;;;;5051017;28;20025;-66
2023/03/09 13:08:18;;;;;;;40.92;24.55;;;;;;;;;;5050558;28;20021;-66
2023/03/09 13:10:44;;;;;;;33.97;24.10;;;;;;;;;;5050176;28;20074;-65
2023/03/09 13:13:28;;;;;;;35.83;23.90;;;;;;;;;;5051168;28;20100;-66
2023/03/09 13:16:12;;;;;;;29.33;21.17;;;;;;;;;;5050547;28;20036;-67
2023/03/09 13:18:37;;;;;;;39.22;24.05;;;;;;;;;;5050888;28;20059;-67
2023/03/09 13:21:21;;;;;;;34.80;24.10;;;;;;;;;;5042204;28;20101;-67
2023/03/09 13:23:47;;;;;;;40.05;27.42;;;;;;;;;;5033365;28;20029;-64
2023/03/09 13:26:13;;;;;;;42.30;26.45;;;;;;;;;;5051799;28;20378;-64
2023/03/09 13:28:40;;;;;;;39.80;26.77;;;;;;;;;;5048423;28;20021;-63
2023/03/09 13:31:08;;;;;;;34.85;26.42;;;;;;;;;;5040518;28;20017;-64
2023/03/09 13:33:35;;;;;;;40.58;26.42;;;;;;;;;;5047777;28;20021;-62
2023/03/09 13:36:04;;;;;;;37.67;26.38;;;;;;;;;;5048645;28;20013;-63
2023/03/09 13:38:32;;;;;;;39.08;27.35;;;;;;;;;;5045601;28;20026;-62
2023/03/09 13:40:58;;;;;;;40.15;26.30;;;;;;;;;;5051355;28;20021;-62
2023/03/09 13:43:25;;;;;;;33.88;27.13;;;;;;;;;;5053397;28;20021;-62
2023/03/09 13:45:58;;;;;;;38.75;26.52;;;;;;;;;;5053335;28;20024;-63
2023/03/09 13:48:23;;;;;;;40.95;27.33;;;;;;;;;;5052253;28;20118;-63
2023/03/09 13:50:49;;;;;;;38.63;27.42;;;;;;;;;;5051287;28;20020;-63
2023/03/09 13:53:14;;;;;;;44.13;27.75;;;;;;;;;;5047992;28;20119;-62
2023/03/09 13:55:40;;;;;;;36.70;24.90;;;;;;;;;;5051290;28;20487;-62
2023/03/09 13:58:25;;;;;;;34.88;25.02;;;;;;;;;;5039469;28;21359;-63
2023/03/09 14:00:53;;;;;;;35.25;24.98;;;;;;;;;;5048095;28;20041;-64
2023/03/09 14:03:19;;;;;;;39.97;25.67;;;;;;;;;;5039238;28;20060;-63
2023/03/09 14:05:56;;;;;;;32.45;24.88;;;;;;;;;;5036325;28;20101;-63
2023/03/09 14:08:22;;;;;;;31.80;25.30;;;;;;;;;;5047486;28;20051;-63
2023/03/09 14:10:48;;;;;;;36.17;25.83;;;;;;;;;;5054054;28;20036;-63
2023/03/09 14:13:16;;;;;;;32.95;26.23;;;;;;;;;;5045690;28;20025;-63